Flight Track Log - Related Links

Times and Time Zones

All times are in EDT time to prevent confusion due to time zone crossing. See the N9955V flight status page for this flight to view local times or setup timezone preferences in your user account.

Time Position Orientation Groundspeed Altitude Reporting Facility
EDT Latitude Longitude Course Direction KTS MPH feet Rate Location/Type
Sat 09:09:15 PM 27.1142 -80.1831 186° South 80 92 2,300  Level Miami Center
Sat 09:10:17 PM 27.0894 -80.1767 167° South 90 104 2,900 585 Climbing Miami Center
Sat 09:11:18 PM 27.0628 -80.1722 172° South 92 106 3,500 393 Climbing Miami Center
Sat 09:12:19 PM 27.0342 -80.1631 164° South 104 120 3,700 49 Climbing Miami Center
Sat 09:13:20 PM 27.0069 -80.1575 170° South 109 125 3,600 -49 Descending Miami Center
Sat 09:14:00 PM 26.9163 -80.2584 186° South  Level Estimated
Sat 09:14:21 PM 26.9747 -80.1447 161° South 111 128 3,600  Level Miami Center
Sat 09:15:22 PM 26.9436 -80.1403 173° South 110 127 3,600  Level Miami Center
Sat 09:16:23 PM 26.9150 -80.1358 172° South 108 124 3,600  Level Miami Center
Sat 09:17:25 PM 26.8833 -80.1331 176° South 108 124 3,600  Level Miami Center
Sat 09:18:26 PM 26.8550 -80.1275 170° South 102 117 3,600  Level Miami Center
Sat 09:19:27 PM 26.8289 -80.1222 170° South 100 115 3,600  Level Miami Center
Sat 09:20:28 PM 26.8017 -80.1172 171° South 96 110 3,600  Level Miami Center
Sat 09:21:29 PM 26.7747 -80.1131 172° South 95 109 3,600  Level Miami Center
Sat 09:22:30 PM 26.7478 -80.1081 171° South 95 109 3,600  Level Miami Center
Sat 09:23:31 PM 26.7222 -80.1006 165° South 97 112 3,600  Level Miami Center
Sat 09:24:32 PM 26.6950 -80.0944 169° South 99 114 3,600  Level Miami Center
Sat 09:25:33 PM 26.6658 -80.0875 168° South 99 114 3,600  Level Miami Center
Sat 09:26:34 PM 26.6394 -80.0783 163° South 100 115 3,600  Level Miami Center
Sat 09:27:35 PM 26.6083 -80.0717 169° South 112 129 3,600  Level Miami Center
Sat 09:28:36 PM 26.5769 -80.0725 181° South 108 124 3,600 -98 Level Miami Center
Sat 09:29:37 PM 26.5506 -80.0803 195° South 100 115 3,400 -47 Descending Miami Center
Sat 09:30:45 PM 26.5189 -80.0833 185° South 101 116 3,500 49 Climbing Miami Center
Sat 09:31:39 PM 26.4956 -80.0822 178° South 93 107 3,500  Level Miami Center
Sat 09:31:57 PM 26.4872 -80.0833 187° South 94 108 3,500  Level Miami Center
Sat 09:32:40 PM 26.4683 -80.0839 182° South 94 108 3,500 52 Level Miami Center
Sat 09:33:53 PM 26.4369 -80.0864 184° South 91 105 3,600 45 Climbing Miami Center
Sat 09:34:54 PM 26.4092 -80.0936 193° South 95 109 3,600 -49 Level Miami Center
Sat 09:35:55 PM 26.3817 -80.0986 189° South 101 116 3,500 -55 Descending Miami Center
Sat 09:36:44 PM 26.3606 -80.1006 185° South 97 112 3,500 100 Level Miami Center
Sat 09:36:55 PM 26.3542 -80.1036 203° Southwest 98 113 3,600  Climbing Miami Center
Sat 09:37:45 PM 26.3342 -80.1064 187° South 97 112 3,500  Descending Miami Center
Sat 09:37:56 PM 26.3289 -80.1061 177° South 94 108 3,600  Climbing Miami Center
Sat 09:38:46 PM 26.3069 -80.1106 190° South 90 104 3,500 -197 Descending Miami Center
Sat 09:38:57 PM 26.3033 -80.1114 192° South 93 107 3,400 -393 Descending Miami Center
Sat 09:39:47 PM 26.2794 -80.1144 187° South 97 112 3,100 -393 Descending Miami Center
Sat 09:39:58 PM 26.2739 -80.1158 193° South 101 116 3,000 -393 Descending Miami Center
Sat 09:40:48 PM 26.2531 -80.1175 184° South 97 112 2,700 -393 Descending Miami Center
Sat 09:40:59 PM 26.2464 -80.1186 189° South 94 108 2,600 -98 Descending Miami Center
Sat 09:41:49 PM 26.2278 -80.1197 183° South 92 106 2,600 -54 Level Miami Center
Sat 09:42:50 PM 26.2019 -80.1250 190° South 92 106 2,500 -50 Descending Miami Center
Sat 09:43:49 PM 26.1744 -80.1294 188° South 90 104 2,500  Level Miami Center
Sat 09:44:50 PM 26.1492 -80.1344 190° South 90 104 2,500  Level Miami Center
Sat 09:45:53 PM 26.1278 -80.1403 194° South 91 105 2,500 49 Level Miami Center
Sat 09:46:53 PM 26.1042 -80.1456 191° South 90 104 2,600 48 Climbing Miami Center
Sat 09:47:57 PM 26.0803 -80.1481 185° South 89 102 2,600  Level Miami Center
Sat 09:48:54 PM 26.0572 -80.1622 209° Southwest 99 114 2,600 50 Level Miami Center
Sat 09:49:57 PM 26.0450 -80.1831 237° Southwest 94 108 2,700  Climbing Miami Center
Sat 09:50:57 PM 26.0278 -80.2069 231° Southwest 98 113 2,600 -145 Descending Miami Center
Sat 09:52:01 PM 26.0125 -80.2317 235° Southwest 98 113 2,400 -290 Descending Miami Center
Sat 09:53:01 PM 25.9961 -80.2611 238° Southwest 97 112 2,000 -198 Descending Miami Center
Sat 09:54:02 PM 25.9822 -80.2858 238° Southwest 96 110 2,000  Level Miami Center
Sat 09:55:03 PM 25.9703 -80.3128 244° Southwest 96 110 2,000  Level Miami Center
Sat 09:56:01 PM 25.9581 -80.3400 243° Southwest 99 114 2,000 50 Level Miami Center
Sat 09:57:02 PM 25.9439 -80.3689 241° Southwest 100 115 2,100 -145 Climbing Miami Center
Sat 09:58:05 PM 25.9292 -80.3911 234° Southwest 97 112 1,700 -288 Descending Miami Center
Sat 09:59:07 PM 25.9125 -80.4150 232° Southwest 97 112 1,500 -162 Descending Miami Center
Sat 09:59:19 PM 25.9067 -80.4239 234° Southwest 97 112 1,500 100 Level Miami Center
Sat 10:00:07 PM 25.8975 -80.4378 234° Southwest 94 108 1,600 55 Climbing Miami Center
Sat 10:01:09 PM 25.8781 -80.4575 222° Southwest 94 108 1,600 52 Level Miami Center
Sat 10:02:03 PM 25.8533 -80.4731 210° Southwest 89 102 1,700 -49 Climbing Miami Center
Sat 10:03:11 PM 25.8275 -80.4850 203° Southwest 96 110 1,500 -93 Descending Miami Center
Sat 10:04:12 PM 25.8011 -80.5014 209° Southwest 100 115 1,500  Level Miami Center
Sat 10:05:13 PM 25.7792 -80.5086 197° South 93 107 1,500 49 Level Miami Center
Sat 10:06:14 PM 25.7497 -80.5181 196° South 100 115 1,600 49 Climbing Miami Center
Sat 10:07:15 PM 25.7244 -80.5231 190° South 97 112 1,600  Level Miami Center
Sat 10:08:15 PM 25.6972 -80.5231 180° South 96 110 1,600 -49 Level Miami Center
Sat 10:09:17 PM 25.6747 -80.5131 158° South 94 108 1,500 -279 Descending Miami Center
Sat 10:10:24 PM 25.6575 -80.4900 130° Southeast 75 86 1,000 -469 Descending Miami Center
Sat 10:11:25 PM 25.6506 -80.4664 108° East 74 85 500 -310 Descending Miami Center
Sat 10:12:20 PM 25.6494 -80.4419 93° East 84 97 400 43 Descending Miami Center
Sat 10:13:45 PM 25.6539 -80.4133 80° East 95 109 600 347 Climbing Miami Center
Sat 10:14:21 PM 25.6525 -80.4017 98° East 70 81 1,100 309 Climbing Miami Center
Sat 10:15:22 PM 25.6711 -80.4056 349° North 102 117 1,100  Level Miami Center

Login

Don't have an account? Register now (free) for customized features, flight alerts, and more!